Terminal Aerodrome Forecast
Issued by NWS

Home | Current Version | Previous Version | Text Only | Print | Product List | Glossary Off
Versions: 1 2 3 4 5 6 7 8 9 10 11 12 13 14 15 16 17 18 19

000
FTUS43 KFGF 291100
TAFBJI
TAF
KBJI 291127Z 2912/3012 06008KT P6SM BKN012
      TEMPO 2912/2914 BKN005
     FM291400 10010KT P6SM BKN015
     FM291800 11008KT P6SM BKN025
     FM292000 11010KT P6SM SKC=

USA.gov is the U.S. government's official web portal to all federal, state and local government web resources and services.